createdAt,value
2022-08-01T00:01:35.948Z,19.31
2022-08-01T00:04:05.437Z,19.17
2022-08-01T00:06:34.543Z,19.22
2022-08-01T00:09:03.202Z,19.16
2022-08-01T00:11:41.670Z,19.18
2022-08-01T00:14:14.065Z,19.16
2022-08-01T00:16:42.715Z,19.13
2022-08-01T00:19:11.583Z,19.02
2022-08-01T00:21:40.303Z,18.68
2022-08-01T00:24:15.369Z,18.24
2022-08-01T00:26:43.699Z,18.02
2022-08-01T00:30:11.765Z,17.80
2022-08-01T00:31:44.418Z,17.66
2022-08-01T00:34:13.104Z,17.45
2022-08-01T00:36:45.634Z,17.32
2022-08-01T00:39:14.455Z,17.26
2022-08-01T00:41:45.514Z,17.14
2022-08-01T00:44:14.244Z,17.12
2022-08-01T00:46:43.080Z,17.12
2022-08-01T00:49:23.754Z,17.12
2022-08-01T00:51:48.161Z,17.09
2022-08-01T00:54:19.534Z,17.13
2022-08-01T00:56:48.389Z,17.09
2022-08-01T00:59:19.529Z,17.06
2022-08-01T01:01:49.983Z,17.12
2022-08-01T01:04:20.784Z,17.16
2022-08-01T01:06:54.106Z,17.27
2022-08-01T01:09:45.102Z,17.25
2022-08-01T01:12:35.954Z,17.27
2022-08-01T01:15:22.855Z,17.27
2022-08-01T01:17:54.512Z,17.33
2022-08-01T01:20:36.491Z,17.29
2022-08-01T01:23:19.421Z,17.29
2022-08-01T01:26:15.423Z,17.32
2022-08-01T01:29:20.449Z,17.34
2022-08-01T01:32:17.579Z,17.36
2022-08-01T01:34:52.325Z,17.39
2022-08-01T01:37:24.028Z,17.37
2022-08-01T01:39:54.830Z,17.31
2022-08-01T01:42:26.565Z,17.27
2022-08-01T01:44:56.837Z,17.23
2022-08-01T01:47:27.733Z,17.32
2022-08-01T01:49:58.427Z,17.30
2022-08-01T01:52:28.385Z,17.32
2022-08-01T01:54:59.712Z,17.27
2022-08-01T01:57:31.845Z,17.28
2022-08-01T02:00:01.348Z,17.22
2022-08-01T02:02:31.580Z,17.17
2022-08-01T02:05:02.969Z,17.18
2022-08-01T02:07:32.553Z,17.19
2022-08-01T02:10:06.446Z,17.17
2022-08-01T02:12:38.006Z,17.22
2022-08-01T02:15:09.394Z,17.33
2022-08-01T02:17:42.283Z,17.32
2022-08-01T02:20:12.446Z,17.35
2022-08-01T02:22:47.149Z,17.28
2022-08-01T02:25:27.741Z,17.19
2022-08-01T02:28:09.151Z,17.27
2022-08-01T02:30:40.631Z,17.26
2022-08-01T02:33:16.088Z,17.15
2022-08-01T02:36:32.258Z,17.15
2022-08-01T02:38:22.048Z,17.05
2022-08-01T02:40:53.910Z,16.88
2022-08-01T02:43:27.062Z,16.79
2022-08-01T02:45:58.713Z,16.70
2022-08-01T02:48:29.101Z,16.69
2022-08-01T02:51:00.449Z,16.68
2022-08-01T02:53:39.042Z,16.77
2022-08-01T02:56:03.973Z,16.58
2022-08-01T02:58:33.452Z,16.55
2022-08-01T03:01:03.651Z,16.49
2022-08-01T03:03:33.238Z,16.41
2022-08-01T03:06:03.818Z,16.35
2022-08-01T03:08:33.618Z,16.33
2022-08-01T03:11:04.410Z,16.33
2022-08-01T03:13:36.320Z,16.29
2022-08-01T03:16:06.913Z,16.29
2022-08-01T03:18:37.830Z,16.23
2022-08-01T03:21:11.135Z,16.21
2022-08-01T03:23:40.916Z,16.14
2022-08-01T03:26:12.962Z,16.05
2022-08-01T03:28:43.659Z,16.05
2022-08-01T03:31:14.762Z,16.08
2022-08-01T03:33:43.578Z,16.07
2022-08-01T03:36:14.730Z,16.10
2022-08-01T03:38:47.210Z,16.13
2022-08-01T03:41:18.846Z,16.12
2022-08-01T03:43:50.504Z,16.20
2022-08-01T03:46:25.943Z,16.39
2022-08-01T03:48:57.124Z,16.50
2022-08-01T03:51:26.103Z,17.29
2022-08-01T03:53:57.948Z,18.66
2022-08-01T03:56:27.251Z,20.02
2022-08-01T03:58:56.277Z,20.76
2022-08-01T04:01:25.575Z,21.15
2022-08-01T04:03:54.852Z,21.06
2022-08-01T04:06:23.575Z,20.78
2022-08-01T04:08:58.216Z,21.04
2022-08-01T04:11:29.928Z,21.04
2022-08-01T04:13:58.843Z,20.76
2022-08-01T04:16:27.955Z,21.25
2022-08-01T04:18:56.719Z,21.46
2022-08-01T04:21:31.603Z,22.09
2022-08-01T04:24:04.834Z,22.60
2022-08-01T04:26:36.733Z,22.95
2022-08-01T04:29:07.167Z,22.53
2022-08-01T04:31:36.975Z,22.15
2022-08-01T04:34:08.477Z,21.87
2022-08-01T04:36:40.147Z,21.48
2022-08-01T04:39:10.699Z,20.32
2022-08-01T04:41:40.793Z,19.16
2022-08-01T04:44:09.593Z,18.98
2022-08-01T04:46:39.291Z,18.70
2022-08-01T04:49:10.504Z,18.29
2022-08-01T04:51:40.617Z,18.30
2022-08-01T04:54:09.269Z,18.14
2022-08-01T04:56:38.000Z,18.10
2022-08-01T04:59:24.722Z,18.09
2022-08-01T05:01:53.524Z,18.11
2022-08-01T05:04:26.669Z,18.31
2022-08-01T05:06:55.596Z,18.26
2022-08-01T05:09:27.084Z,18.31
2022-08-01T05:11:54.806Z,18.35
2022-08-01T05:14:23.527Z,18.35
2022-08-01T05:16:54.028Z,18.48
2022-08-01T05:19:23.538Z,18.55
2022-08-01T05:21:53.151Z,18.61
2022-08-01T05:24:23.756Z,18.71
2022-08-01T05:26:57.791Z,18.89
2022-08-01T05:29:27.601Z,19.08
2022-08-01T05:31:57.820Z,19.17
2022-08-01T05:34:26.682Z,19.33
2022-08-01T05:36:57.733Z,19.53
2022-08-01T05:39:25.950Z,19.58
2022-08-01T05:41:54.764Z,19.66
2022-08-01T05:44:23.503Z,19.79
2022-08-01T05:46:52.307Z,19.85
2022-08-01T05:49:21.273Z,19.93
2022-08-01T05:51:50.126Z,20.05
2022-08-01T05:54:21.888Z,20.05
2022-08-01T05:56:50.592Z,20.09
2022-08-01T05:59:22.635Z,20.24
2022-08-01T06:01:53.027Z,20.31
2022-08-01T06:04:22.082Z,20.50
2022-08-01T06:06:52.726Z,20.64
2022-08-01T06:09:29.075Z,20.59
2022-08-01T06:12:05.074Z,20.65
2022-08-01T06:14:36.375Z,20.71
2022-08-01T06:17:09.706Z,20.79
2022-08-01T06:19:45.760Z,20.81
2022-08-01T06:22:20.615Z,21.01
2022-08-01T06:24:53.259Z,21.06
2022-08-01T06:27:26.843Z,21.09
2022-08-01T06:30:08.284Z,20.90
2022-08-01T06:32:40.248Z,21.00
2022-08-01T06:35:14.765Z,21.23
2022-08-01T06:38:10.284Z,21.50
2022-08-01T06:40:51.057Z,21.68
2022-08-01T06:43:57.805Z,21.65
2022-08-01T06:46:32.522Z,21.77
2022-08-01T06:49:00.995Z,21.89
2022-08-01T06:51:29.908Z,21.88
2022-08-01T06:53:58.920Z,21.85
2022-08-01T06:56:28.016Z,21.75
2022-08-01T06:59:00.571Z,21.63
2022-08-01T07:01:31.001Z,21.95
2022-08-01T07:04:13.808Z,22.22
2022-08-01T07:06:49.046Z,22.40
2022-08-01T07:09:16.932Z,22.17
2022-08-01T07:11:52.476Z,22.28
2022-08-01T07:14:29.660Z,22.38
2022-08-01T07:17:08.076Z,22.33
2022-08-01T07:19:38.516Z,22.23
2022-08-01T07:22:08.302Z,21.99
2022-08-01T07:24:38.498Z,22.35
2022-08-01T07:27:23.132Z,22.42
2022-08-01T07:29:42.531Z,22.44
2022-08-01T07:32:11.273Z,22.43
2022-08-01T07:34:41.604Z,22.57
2022-08-01T07:37:12.004Z,22.39
2022-08-01T07:39:40.809Z,22.44
2022-08-01T07:42:10.031Z,22.56
2022-08-01T07:44:39.807Z,22.76
2022-08-01T07:47:08.628Z,22.78
2022-08-01T07:49:40.424Z,22.77
2022-08-01T07:52:08.264Z,22.85
2022-08-01T07:54:51.791Z,22.83
2022-08-01T07:57:16.683Z,22.77
2022-08-01T07:59:45.614Z,22.97
2022-08-01T08:02:14.656Z,23.02
2022-08-01T08:04:49.088Z,22.97
2022-08-01T08:07:17.592Z,22.90
2022-08-01T08:09:50.974Z,22.94
2022-08-01T08:12:19.234Z,22.97
2022-08-01T08:14:49.758Z,23.38
2022-08-01T08:17:22.601Z,23.30
2022-08-01T08:19:51.447Z,23.22
2022-08-01T08:22:22.983Z,23.52
2022-08-01T08:24:52.796Z,23.48
2022-08-01T08:27:21.489Z,23.82
2022-08-01T08:29:50.302Z,23.51
2022-08-01T08:32:19.024Z,23.52
2022-08-01T08:34:51.579Z,23.33
2022-08-01T08:37:20.949Z,23.29
2022-08-01T08:39:51.078Z,23.57
2022-08-01T08:42:21.015Z,23.52
2022-08-01T08:44:51.343Z,23.70
2022-08-01T08:47:21.084Z,23.60
2022-08-01T08:49:52.100Z,23.78
2022-08-01T08:52:22.943Z,23.78
2022-08-01T08:54:53.621Z,23.63
2022-08-01T08:57:32.313Z,23.89
2022-08-01T08:59:56.290Z,23.74
2022-08-01T09:02:33.582Z,24.11
2022-08-01T09:05:03.328Z,24.07
2022-08-01T09:07:32.099Z,24.37
2022-08-01T09:10:02.033Z,24.11
2022-08-01T09:12:31.013Z,23.90
2022-08-01T09:15:00.389Z,23.82
2022-08-01T09:17:29.222Z,24.26
2022-08-01T09:19:59.033Z,24.14
2022-08-01T09:22:28.583Z,24.10
2022-08-01T09:25:06.843Z,24.36
2022-08-01T09:27:36.862Z,24.08
2022-08-01T09:30:17.318Z,24.28
2022-08-01T09:33:17.803Z,24.29
2022-08-01T09:35:43.884Z,24.38
2022-08-01T09:38:20.965Z,24.36
2022-08-01T09:40:59.729Z,24.32
2022-08-01T09:43:38.151Z,24.33
2022-08-01T09:46:14.166Z,24.29
2022-08-01T09:49:07.421Z,24.40
2022-08-01T09:51:59.433Z,24.65
2022-08-01T09:54:22.653Z,24.85
2022-08-01T09:56:56.210Z,25.02
2022-08-01T09:59:40.874Z,25.23
2022-08-01T10:02:02.235Z,25.50
2022-08-01T10:04:34.297Z,24.75
2022-08-01T10:07:21.853Z,24.83
2022-08-01T10:09:45.285Z,25.06
2022-08-01T10:12:27.190Z,25.42
2022-08-01T10:15:02.282Z,25.25
2022-08-01T10:17:50.392Z,24.82
2022-08-01T10:20:29.019Z,24.96
2022-08-01T10:22:50.354Z,25.41
2022-08-01T10:25:42.027Z,25.83
2022-08-01T10:28:04.260Z,25.80
2022-08-01T10:30:33.493Z,25.81
2022-08-01T10:33:06.328Z,25.57
2022-08-01T10:35:46.694Z,25.34
2022-08-01T10:38:10.713Z,25.41
2022-08-01T10:40:47.129Z,25.42
2022-08-01T10:43:23.870Z,25.30
2022-08-01T10:45:59.466Z,25.70
2022-08-01T10:49:01.303Z,25.52
2022-08-01T10:51:52.849Z,25.63
2022-08-01T10:57:17.007Z,25.43
2022-08-01T11:00:00.960Z,25.76
2022-08-01T11:02:35.485Z,25.61
2022-08-01T11:05:18.156Z,25.52
2022-08-01T11:08:01.245Z,25.62
2022-08-01T11:10:51.599Z,25.24
2022-08-01T11:13:25.503Z,25.55
2022-08-01T11:16:06.041Z,25.40
2022-08-01T11:18:38.206Z,25.48
2022-08-01T11:21:57.360Z,25.59
2022-08-01T11:23:57.798Z,25.79
2022-08-01T11:26:29.104Z,25.74
2022-08-01T11:29:21.531Z,25.48
2022-08-01T11:31:52.584Z,25.57
2022-08-01T11:34:24.599Z,25.33
2022-08-01T11:37:00.224Z,25.22
2022-08-01T11:39:38.840Z,25.32
2022-08-01T11:42:19.381Z,25.51
2022-08-01T11:44:52.832Z,25.62
2022-08-01T11:47:24.737Z,25.55
2022-08-01T11:49:59.995Z,25.53
2022-08-01T11:52:31.534Z,25.72
2022-08-01T11:55:36.766Z,26.03
2022-08-01T11:58:22.495Z,26.16
2022-08-01T12:00:47.231Z,25.98
2022-08-01T12:03:28.086Z,26.00
2022-08-01T12:05:49.764Z,25.63
2022-08-01T12:08:30.666Z,26.02
2022-08-01T12:11:02.757Z,26.03
2022-08-01T12:13:47.767Z,26.31
2022-08-01T12:16:16.631Z,25.74
2022-08-01T12:18:45.991Z,26.01
2022-08-01T12:21:17.041Z,25.97
2022-08-01T12:23:49.549Z,25.83
2022-08-01T12:26:29.299Z,25.84
2022-08-01T12:28:53.742Z,25.86
2022-08-01T12:31:27.011Z,25.95
2022-08-01T12:33:58.480Z,25.90
2022-08-01T12:36:34.723Z,26.00
2022-08-01T12:39:05.519Z,25.88
2022-08-01T12:41:38.146Z,26.05
2022-08-01T12:44:16.633Z,25.93
2022-08-01T12:46:46.870Z,25.85
2022-08-01T12:49:17.265Z,26.04
2022-08-01T12:51:57.021Z,26.05
2022-08-01T12:54:21.897Z,26.57
2022-08-01T12:56:54.048Z,26.22
2022-08-01T12:59:28.019Z,26.31
2022-08-01T13:01:59.669Z,26.38
2022-08-01T13:04:30.553Z,26.48
2022-08-01T13:07:04.362Z,26.15
2022-08-01T13:09:34.987Z,26.47
2022-08-01T13:12:06.796Z,26.64
2022-08-01T13:14:43.240Z,26.40
2022-08-01T13:17:16.031Z,26.47
2022-08-01T13:19:58.698Z,26.82
2022-08-01T13:22:25.243Z,26.89
2022-08-01T13:24:54.161Z,26.85
2022-08-01T13:27:27.998Z,27.10
2022-08-01T13:29:59.903Z,27.15
2022-08-01T13:32:32.427Z,26.97
2022-08-01T13:35:11.028Z,27.11
2022-08-01T13:37:44.233Z,27.11
2022-08-01T13:40:13.882Z,27.23
2022-08-01T13:42:42.901Z,27.35
2022-08-01T13:45:14.457Z,26.73
2022-08-01T13:48:03.779Z,27.00
2022-08-01T13:50:17.119Z,26.83
2022-08-01T13:52:46.257Z,27.15
2022-08-01T13:55:16.750Z,26.93
2022-08-01T13:57:48.689Z,26.58
2022-08-01T14:00:20.516Z,26.89
2022-08-01T14:02:53.869Z,26.54
2022-08-01T14:05:24.432Z,26.59
2022-08-01T14:07:56.344Z,26.70
2022-08-01T14:10:26.846Z,26.84
2022-08-01T14:12:57.587Z,26.97
2022-08-01T14:15:37.963Z,26.44
2022-08-01T14:18:07.202Z,26.39
2022-08-01T14:20:39.705Z,26.60
2022-08-01T14:23:11.410Z,26.68
2022-08-01T14:26:03.129Z,27.04
2022-08-01T14:28:13.242Z,26.98
2022-08-01T14:30:43.763Z,27.24
2022-08-01T14:33:17.564Z,27.83
2022-08-01T14:36:01.272Z,28.25
2022-08-01T14:38:29.031Z,28.03
2022-08-01T14:40:55.232Z,28.47
2022-08-01T14:43:29.399Z,29.27
2022-08-01T14:45:55.811Z,29.20
2022-08-01T14:48:26.703Z,29.75
2022-08-01T14:50:55.388Z,29.62
2022-08-01T14:53:24.064Z,29.56
2022-08-01T14:55:52.745Z,29.56
2022-08-01T14:58:21.512Z,29.93
2022-08-01T15:00:51.692Z,30.98
2022-08-01T15:03:20.530Z,31.95
2022-08-01T15:05:49.648Z,31.72
2022-08-01T15:08:20.785Z,30.56
2022-08-01T15:10:49.467Z,29.61
2022-08-01T15:13:18.864Z,30.18
2022-08-01T15:15:51.372Z,30.60
2022-08-01T15:18:22.165Z,30.31
2022-08-01T15:20:57.595Z,30.62
2022-08-01T15:23:25.931Z,29.46
2022-08-01T15:25:56.130Z,29.72
2022-08-01T15:28:24.804Z,29.06
2022-08-01T15:30:53.628Z,28.65
2022-08-01T15:33:22.992Z,27.79
2022-08-01T15:35:52.809Z,27.69
2022-08-01T15:38:22.760Z,27.93
2022-08-01T15:40:59.504Z,27.50
2022-08-01T15:43:28.085Z,27.91
2022-08-01T15:45:56.647Z,27.87
2022-08-01T15:48:25.361Z,27.02
2022-08-01T15:50:54.075Z,27.84
2022-08-01T15:53:22.638Z,27.98
2022-08-01T15:55:55.485Z,27.37
2022-08-01T15:58:24.358Z,28.10
2022-08-01T16:00:54.785Z,29.76
2022-08-01T16:03:25.681Z,30.03
2022-08-01T16:05:54.788Z,28.03
2022-08-01T16:08:26.165Z,26.87
2022-08-01T16:10:54.967Z,27.17
2022-08-01T16:13:23.833Z,27.05
2022-08-01T16:15:53.256Z,26.80
2022-08-01T16:21:18.032Z,26.85
2022-08-01T16:23:50.018Z,26.66
2022-08-01T16:26:27.274Z,26.56
2022-08-01T16:28:52.817Z,26.90
2022-08-01T16:31:51.888Z,26.65
2022-08-01T16:34:02.753Z,26.54
2022-08-01T16:36:32.971Z,26.45
2022-08-01T16:39:11.137Z,26.30
2022-08-01T16:41:39.802Z,26.30
2022-08-01T16:44:08.494Z,26.17
2022-08-01T16:46:37.091Z,26.24
2022-08-01T16:49:09.014Z,26.13
2022-08-01T16:51:47.691Z,26.21
2022-08-01T16:54:25.085Z,26.00
2022-08-01T16:56:38.739Z,25.76
2022-08-01T16:59:07.457Z,25.71
2022-08-01T17:02:00.872Z,25.65
2022-08-01T17:04:07.374Z,25.70
2022-08-01T17:06:36.096Z,25.70
2022-08-01T17:09:09.609Z,25.69
2022-08-01T17:11:38.290Z,25.56
2022-08-01T17:14:06.998Z,25.50
2022-08-01T17:16:36.296Z,25.48
2022-08-01T17:19:05.346Z,25.40
2022-08-01T17:21:34.075Z,25.42
2022-08-01T17:24:02.665Z,25.37
2022-08-01T17:26:32.381Z,25.26
2022-08-01T17:29:00.876Z,25.19
2022-08-01T17:31:29.516Z,25.07
2022-08-01T17:33:58.060Z,25.06
2022-08-01T17:36:26.729Z,25.01
2022-08-01T17:38:55.276Z,25.00
2022-08-01T17:41:23.971Z,24.97
2022-08-01T17:43:53.094Z,24.92
2022-08-01T17:46:22.274Z,24.89
2022-08-01T17:48:51.250Z,24.89
2022-08-01T17:51:24.610Z,24.80
2022-08-01T17:53:56.962Z,24.66
2022-08-01T17:56:27.006Z,24.57
2022-08-01T17:58:57.732Z,24.46
2022-08-01T18:01:27.406Z,24.40
2022-08-01T18:03:58.537Z,24.32
2022-08-01T18:06:35.895Z,24.22
2022-08-01T18:09:05.647Z,24.14
2022-08-01T18:11:37.804Z,24.05
2022-08-01T18:14:07.558Z,24.00
2022-08-01T18:16:36.265Z,23.92
2022-08-01T18:19:07.902Z,23.78
2022-08-01T18:21:39.801Z,23.70
2022-08-01T18:24:07.622Z,23.66
2022-08-01T18:26:39.264Z,23.59
2022-08-01T18:29:11.236Z,23.47
2022-08-01T18:31:50.760Z,23.40
2022-08-01T18:34:21.971Z,23.39
2022-08-01T18:36:56.886Z,23.35
2022-08-01T18:39:34.530Z,23.33
2022-08-01T18:42:04.887Z,23.28
2022-08-01T18:44:33.873Z,23.17
2022-08-01T18:47:13.330Z,23.09
2022-08-01T18:53:26.523Z,22.98
2022-08-01T18:56:00.160Z,22.87
2022-08-01T18:58:34.327Z,22.88
2022-08-01T19:01:05.486Z,22.84
2022-08-01T19:03:42.259Z,22.83
2022-08-01T19:06:11.341Z,22.80
2022-08-01T19:08:50.113Z,22.73
2022-08-01T19:11:29.295Z,22.70
2022-08-01T19:13:58.225Z,22.64
2022-08-01T19:16:29.158Z,22.56
2022-08-01T19:18:57.921Z,22.52
2022-08-01T19:21:27.174Z,22.38
2022-08-01T19:24:13.733Z,22.38
2022-08-01T19:26:56.734Z,22.32
2022-08-01T19:29:35.666Z,22.24
2022-08-01T19:32:08.666Z,22.28
2022-08-01T19:34:37.736Z,22.17
2022-08-01T19:37:08.359Z,22.16
2022-08-01T19:39:37.438Z,22.19
2022-08-01T19:42:06.265Z,22.21
2022-08-01T19:44:35.652Z,22.15
2022-08-01T19:47:06.588Z,22.14
2022-08-01T19:49:38.806Z,22.04
2022-08-01T19:52:11.477Z,22.00
2022-08-01T19:54:44.803Z,21.92
2022-08-01T19:57:16.041Z,21.96
2022-08-01T19:59:54.976Z,21.90
2022-08-01T20:02:22.595Z,21.84
2022-08-01T20:04:51.297Z,21.77
2022-08-01T20:07:20.226Z,21.67
2022-08-01T20:09:50.771Z,21.68
2022-08-01T20:12:26.259Z,21.65
2022-08-01T20:14:55.013Z,21.64
2022-08-01T20:17:27.760Z,21.54
2022-08-01T20:19:56.514Z,21.56
2022-08-01T20:22:34.009Z,21.47
2022-08-01T20:25:07.390Z,21.47
2022-08-01T20:27:43.451Z,21.50
2022-08-01T20:30:13.921Z,21.49
2022-08-01T20:32:44.754Z,21.36
2022-08-01T20:35:14.513Z,21.34
2022-08-01T20:38:06.243Z,21.32
2022-08-01T20:40:21.939Z,21.36
2022-08-01T20:42:52.521Z,21.32
2022-08-01T20:45:23.001Z,21.26
2022-08-01T20:47:54.038Z,21.19
2022-08-01T20:50:53.748Z,20.81
2022-08-01T20:53:11.848Z,21.21
2022-08-01T20:55:49.300Z,21.22
2022-08-01T20:58:21.106Z,21.19
2022-08-01T21:00:53.154Z,21.13
2022-08-01T21:03:26.250Z,21.12
2022-08-01T21:05:58.950Z,21.08
2022-08-01T21:08:47.557Z,21.03
2022-08-01T21:11:19.261Z,21.00
2022-08-01T21:13:49.471Z,20.94
2022-08-01T21:16:25.264Z,20.94
2022-08-01T21:19:24.368Z,20.98
2022-08-01T21:21:42.416Z,20.84
2022-08-01T21:24:16.592Z,20.80
2022-08-01T21:26:46.738Z,20.72
2022-08-01T21:29:19.435Z,20.75
2022-08-01T21:31:50.894Z,20.75
2022-08-01T21:34:26.599Z,20.69
2022-08-01T21:36:55.773Z,20.66
2022-08-01T21:39:25.750Z,20.55
2022-08-01T21:42:03.964Z,20.56
2022-08-01T21:44:28.647Z,20.55
2022-08-01T21:47:00.873Z,20.46
2022-08-01T21:49:30.311Z,20.36
2022-08-01T21:52:05.487Z,20.33
2022-08-01T21:55:10.810Z,20.25
2022-08-01T21:58:00.105Z,20.18
2022-08-01T22:00:29.847Z,20.16
2022-08-01T22:03:19.941Z,20.14
2022-08-01T22:05:51.659Z,20.13
2022-08-01T22:08:31.788Z,20.02
2022-08-01T22:11:03.580Z,19.51
2022-08-01T22:13:40.003Z,20.00
2022-08-01T22:16:15.958Z,19.95
2022-08-01T22:18:46.987Z,19.71
2022-08-01T22:21:19.958Z,19.81
2022-08-01T22:23:50.695Z,19.79
2022-08-01T22:26:24.607Z,19.83
2022-08-01T22:28:55.132Z,19.81
2022-08-01T22:31:25.167Z,19.82
2022-08-01T22:33:54.675Z,19.71
2022-08-01T22:36:23.769Z,19.68
2022-08-01T22:38:53.991Z,19.62
2022-08-01T22:41:25.689Z,19.59
2022-08-01T22:44:01.483Z,19.54
2022-08-01T22:46:42.602Z,19.48
2022-08-01T22:49:34.948Z,19.45
2022-08-01T22:52:27.882Z,19.35
2022-08-01T22:55:07.894Z,19.26
2022-08-01T22:58:01.132Z,19.20
2022-08-01T23:00:32.298Z,19.17
2022-08-01T23:03:20.830Z,19.10
2022-08-01T23:05:52.765Z,19.09
2022-08-01T23:08:24.781Z,18.98
2022-08-01T23:10:56.054Z,18.98
2022-08-01T23:13:26.137Z,18.98
2022-08-01T23:15:55.564Z,19.01
2022-08-01T23:18:29.800Z,18.89
2022-08-01T23:21:00.370Z,18.79
2022-08-01T23:23:31.862Z,18.77
2022-08-01T23:26:02.206Z,18.75
2022-08-01T23:28:34.197Z,18.76
2022-08-01T23:31:04.307Z,18.73
2022-08-01T23:33:33.056Z,18.71
2022-08-01T23:36:01.741Z,18.65
2022-08-01T23:38:31.307Z,18.65
2022-08-01T23:41:00.086Z,18.63
2022-08-01T23:43:28.776Z,18.66
2022-08-01T23:46:04.117Z,18.62
2022-08-01T23:48:27.839Z,18.57
2022-08-01T23:51:07.658Z,18.54
2022-08-01T23:53:40.026Z,18.47
2022-08-01T23:56:08.644Z,18.41
2022-08-01T23:58:37.506Z,18.41
